sensor_id;sensor_type;location;lat;lon;timestamp;P1;durP1;ratioP1;P2;durP2;ratioP2
4206;SDS011;2117;47.972;7.830;2024-01-16T00:00:53;11.20;;;4.67;;
4206;SDS011;2117;47.972;7.830;2024-01-16T00:03:19;8.80;;;4.43;;
4206;SDS011;2117;47.972;7.830;2024-01-16T00:05:48;11.30;;;5.57;;
4206;SDS011;2117;47.972;7.830;2024-01-16T00:08:14;12.40;;;5.17;;
4206;SDS011;2117;47.972;7.830;2024-01-16T00:10:39;17.00;;;7.13;;
4206;SDS011;2117;47.972;7.830;2024-01-16T00:13:05;11.73;;;5.77;;
4206;SDS011;2117;47.972;7.830;2024-01-16T00:15:30;13.00;;;5.70;;
4206;SDS011;2117;47.972;7.830;2024-01-16T00:17:56;10.90;;;4.63;;
4206;SDS011;2117;47.972;7.830;2024-01-16T00:20:21;10.87;;;4.20;;
4206;SDS011;2117;47.972;7.830;2024-01-16T00:22:48;7.30;;;4.90;;
4206;SDS011;2117;47.972;7.830;2024-01-16T00:25:14;7.80;;;4.30;;
4206;SDS011;2117;47.972;7.830;2024-01-16T00:27:39;5.40;;;3.53;;
4206;SDS011;2117;47.972;7.830;2024-01-16T00:30:05;6.60;;;3.37;;
4206;SDS011;2117;47.972;7.830;2024-01-16T00:32:31;6.97;;;2.97;;
4206;SDS011;2117;47.972;7.830;2024-01-16T00:34:57;5.73;;;3.50;;
4206;SDS011;2117;47.972;7.830;2024-01-16T00:37:22;4.40;;;3.10;;
4206;SDS011;2117;47.972;7.830;2024-01-16T00:39:48;7.93;;;3.30;;
4206;SDS011;2117;47.972;7.830;2024-01-16T00:42:13;11.30;;;4.37;;
4206;SDS011;2117;47.972;7.830;2024-01-16T00:44:39;7.63;;;4.10;;
4206;SDS011;2117;47.972;7.830;2024-01-16T00:47:04;8.50;;;3.93;;
4206;SDS011;2117;47.972;7.830;2024-01-16T00:49:30;9.10;;;4.10;;
4206;SDS011;2117;47.972;7.830;2024-01-16T00:51:56;8.17;;;5.17;;
4206;SDS011;2117;47.972;7.830;2024-01-16T00:54:21;10.57;;;4.37;;
4206;SDS011;2117;47.972;7.830;2024-01-16T00:56:47;8.80;;;4.77;;
4206;SDS011;2117;47.972;7.830;2024-01-16T00:59:13;7.23;;;4.10;;
4206;SDS011;2117;47.972;7.830;2024-01-16T01:01:38;10.90;;;4.80;;
4206;SDS011;2117;47.972;7.830;2024-01-16T01:04:04;9.60;;;5.00;;
4206;SDS011;2117;47.972;7.830;2024-01-16T01:06:29;10.40;;;4.07;;
4206;SDS011;2117;47.972;7.830;2024-01-16T01:08:55;8.93;;;4.90;;
4206;SDS011;2117;47.972;7.830;2024-01-16T01:11:21;8.47;;;4.40;;
4206;SDS011;2117;47.972;7.830;2024-01-16T01:13:46;11.67;;;5.53;;
4206;SDS011;2117;47.972;7.830;2024-01-16T01:16:12;11.03;;;5.73;;
4206;SDS011;2117;47.972;7.830;2024-01-16T01:18:37;8.80;;;4.80;;
4206;SDS011;2117;47.972;7.830;2024-01-16T01:21:03;13.23;;;4.80;;
4206;SDS011;2117;47.972;7.830;2024-01-16T01:23:28;14.00;;;5.43;;
4206;SDS011;2117;47.972;7.830;2024-01-16T01:25:54;11.10;;;4.40;;
4206;SDS011;2117;47.972;7.830;2024-01-16T01:28:19;9.30;;;5.23;;
4206;SDS011;2117;47.972;7.830;2024-01-16T01:30:45;11.77;;;4.60;;
4206;SDS011;2117;47.972;7.830;2024-01-16T01:33:11;7.47;;;4.33;;
4206;SDS011;2117;47.972;7.830;2024-01-16T01:35:37;7.20;;;4.33;;
4206;SDS011;2117;47.972;7.830;2024-01-16T01:38:02;8.33;;;3.70;;
4206;SDS011;2117;47.972;7.830;2024-01-16T01:40:28;9.77;;;4.10;;
4206;SDS011;2117;47.972;7.830;2024-01-16T01:42:53;9.40;;;4.20;;
4206;SDS011;2117;47.972;7.830;2024-01-16T01:45:19;6.90;;;3.40;;
4206;SDS011;2117;47.972;7.830;2024-01-16T01:47:45;8.63;;;4.17;;
4206;SDS011;2117;47.972;7.830;2024-01-16T01:50:11;9.93;;;4.30;;
4206;SDS011;2117;47.972;7.830;2024-01-16T01:52:38;6.73;;;3.40;;
4206;SDS011;2117;47.972;7.830;2024-01-16T01:55:06;5.70;;;3.70;;
4206;SDS011;2117;47.972;7.830;2024-01-16T01:57:35;6.90;;;4.37;;
4206;SDS011;2117;47.972;7.830;2024-01-16T02:00:01;7.93;;;3.30;;
4206;SDS011;2117;47.972;7.830;2024-01-16T02:02:28;7.47;;;3.40;;
4206;SDS011;2117;47.972;7.830;2024-01-16T02:04:54;7.37;;;3.60;;
4206;SDS011;2117;47.972;7.830;2024-01-16T02:07:20;7.27;;;3.20;;
4206;SDS011;2117;47.972;7.830;2024-01-16T02:09:46;3.87;;;2.93;;
4206;SDS011;2117;47.972;7.830;2024-01-16T02:12:12;10.60;;;3.77;;
4206;SDS011;2117;47.972;7.830;2024-01-16T02:14:38;8.03;;;3.40;;
4206;SDS011;2117;47.972;7.830;2024-01-16T02:17:03;13.03;;;3.90;;
4206;SDS011;2117;47.972;7.830;2024-01-16T02:19:29;6.23;;;3.20;;
4206;SDS011;2117;47.972;7.830;2024-01-16T02:21:56;7.80;;;3.70;;
4206;SDS011;2117;47.972;7.830;2024-01-16T02:24:25;4.80;;;3.50;;
4206;SDS011;2117;47.972;7.830;2024-01-16T02:26:50;7.43;;;2.77;;
4206;SDS011;2117;47.972;7.830;2024-01-16T02:29:16;8.00;;;3.60;;
4206;SDS011;2117;47.972;7.830;2024-01-16T02:31:42;5.10;;;2.93;;
4206;SDS011;2117;47.972;7.830;2024-01-16T02:34:08;9.10;;;3.53;;
4206;SDS011;2117;47.972;7.830;2024-01-16T02:36:34;8.40;;;2.70;;
4206;SDS011;2117;47.972;7.830;2024-01-16T02:38:59;15.97;;;4.10;;
4206;SDS011;2117;47.972;7.830;2024-01-16T02:41:25;7.17;;;3.70;;
4206;SDS011;2117;47.972;7.830;2024-01-16T02:43:51;5.20;;;3.77;;
4206;SDS011;2117;47.972;7.830;2024-01-16T02:46:16;8.43;;;3.90;;
4206;SDS011;2117;47.972;7.830;2024-01-16T02:48:42;5.60;;;3.60;;
4206;SDS011;2117;47.972;7.830;2024-01-16T02:51:08;8.50;;;3.77;;
4206;SDS011;2117;47.972;7.830;2024-01-16T02:53:34;8.13;;;3.70;;
4206;SDS011;2117;47.972;7.830;2024-01-16T02:56:00;7.77;;;3.60;;
4206;SDS011;2117;47.972;7.830;2024-01-16T02:58:26;7.17;;;3.10;;
4206;SDS011;2117;47.972;7.830;2024-01-16T03:00:58;6.00;;;3.30;;
4206;SDS011;2117;47.972;7.830;2024-01-16T03:03:24;5.50;;;3.13;;
4206;SDS011;2117;47.972;7.830;2024-01-16T03:05:49;5.70;;;2.90;;
4206;SDS011;2117;47.972;7.830;2024-01-16T03:08:15;5.63;;;3.30;;
4206;SDS011;2117;47.972;7.830;2024-01-16T03:10:41;7.30;;;3.10;;
4206;SDS011;2117;47.972;7.830;2024-01-16T03:13:07;6.67;;;3.90;;
4206;SDS011;2117;47.972;7.830;2024-01-16T03:15:32;5.10;;;3.67;;
4206;SDS011;2117;47.972;7.830;2024-01-16T03:17:58;10.13;;;4.27;;
4206;SDS011;2117;47.972;7.830;2024-01-16T03:20:26;6.33;;;3.43;;
4206;SDS011;2117;47.972;7.830;2024-01-16T03:22:52;9.20;;;3.93;;
4206;SDS011;2117;47.972;7.830;2024-01-16T03:25:18;6.83;;;3.37;;
4206;SDS011;2117;47.972;7.830;2024-01-16T03:27:44;6.83;;;3.67;;
4206;SDS011;2117;47.972;7.830;2024-01-16T03:30:09;6.90;;;3.70;;
4206;SDS011;2117;47.972;7.830;2024-01-16T03:32:35;4.93;;;3.13;;
4206;SDS011;2117;47.972;7.830;2024-01-16T03:35:02;6.73;;;4.00;;
4206;SDS011;2117;47.972;7.830;2024-01-16T03:37:28;8.33;;;3.80;;
4206;SDS011;2117;47.972;7.830;2024-01-16T03:39:53;6.40;;;3.20;;
4206;SDS011;2117;47.972;7.830;2024-01-16T03:42:19;8.67;;;3.40;;
4206;SDS011;2117;47.972;7.830;2024-01-16T03:44:45;7.93;;;3.27;;
4206;SDS011;2117;47.972;7.830;2024-01-16T03:47:11;7.13;;;3.50;;
4206;SDS011;2117;47.972;7.830;2024-01-16T03:49:37;4.80;;;2.97;;
4206;SDS011;2117;47.972;7.830;2024-01-16T03:52:03;8.00;;;3.60;;
4206;SDS011;2117;47.972;7.830;2024-01-16T03:54:28;5.40;;;3.23;;
4206;SDS011;2117;47.972;7.830;2024-01-16T03:56:54;6.77;;;3.20;;
4206;SDS011;2117;47.972;7.830;2024-01-16T03:59:20;7.27;;;3.43;;
4206;SDS011;2117;47.972;7.830;2024-01-16T04:01:46;6.00;;;3.87;;
4206;SDS011;2117;47.972;7.830;2024-01-16T04:04:12;6.17;;;4.10;;
4206;SDS011;2117;47.972;7.830;2024-01-16T04:06:38;6.73;;;4.30;;
4206;SDS011;2117;47.972;7.830;2024-01-16T04:09:04;5.70;;;3.10;;
4206;SDS011;2117;47.972;7.830;2024-01-16T04:11:30;10.50;;;4.80;;
4206;SDS011;2117;47.972;7.830;2024-01-16T04:13:56;7.43;;;3.60;;
4206;SDS011;2117;47.972;7.830;2024-01-16T04:16:21;4.90;;;2.80;;
4206;SDS011;2117;47.972;7.830;2024-01-16T04:18:47;6.80;;;4.00;;
4206;SDS011;2117;47.972;7.830;2024-01-16T04:21:13;6.63;;;3.73;;
4206;SDS011;2117;47.972;7.830;2024-01-16T04:23:38;7.30;;;3.77;;
4206;SDS011;2117;47.972;7.830;2024-01-16T04:26:06;8.50;;;3.70;;
4206;SDS011;2117;47.972;7.830;2024-01-16T04:28:32;6.07;;;3.17;;
4206;SDS011;2117;47.972;7.830;2024-01-16T04:30:59;8.30;;;3.53;;
4206;SDS011;2117;47.972;7.830;2024-01-16T04:33:25;8.70;;;3.90;;
4206;SDS011;2117;47.972;7.830;2024-01-16T04:35:51;10.93;;;5.47;;
4206;SDS011;2117;47.972;7.830;2024-01-16T04:38:16;11.30;;;5.23;;
4206;SDS011;2117;47.972;7.830;2024-01-16T04:40:42;14.23;;;5.93;;
4206;SDS011;2117;47.972;7.830;2024-01-16T04:43:07;11.07;;;5.70;;
4206;SDS011;2117;47.972;7.830;2024-01-16T04:45:33;7.60;;;4.73;;
4206;SDS011;2117;47.972;7.830;2024-01-16T04:47:58;11.90;;;5.70;;
4206;SDS011;2117;47.972;7.830;2024-01-16T04:50:24;7.83;;;5.13;;
4206;SDS011;2117;47.972;7.830;2024-01-16T04:52:56;13.73;;;5.37;;
4206;SDS011;2117;47.972;7.830;2024-01-16T04:55:22;14.03;;;5.20;;
4206;SDS011;2117;47.972;7.830;2024-01-16T04:57:48;9.67;;;4.77;;
4206;SDS011;2117;47.972;7.830;2024-01-16T05:00:13;11.07;;;4.97;;
4206;SDS011;2117;47.972;7.830;2024-01-16T05:02:39;10.00;;;5.60;;
4206;SDS011;2117;47.972;7.830;2024-01-16T05:05:05;10.67;;;4.43;;
4206;SDS011;2117;47.972;7.830;2024-01-16T05:07:31;12.13;;;5.70;;
4206;SDS011;2117;47.972;7.830;2024-01-16T05:09:56;13.17;;;6.97;;
4206;SDS011;2117;47.972;7.830;2024-01-16T05:12:23;12.40;;;6.30;;
4206;SDS011;2117;47.972;7.830;2024-01-16T05:14:48;13.37;;;6.57;;
4206;SDS011;2117;47.972;7.830;2024-01-16T05:17:14;14.00;;;6.37;;
4206;SDS011;2117;47.972;7.830;2024-01-16T05:19:39;9.53;;;5.80;;
4206;SDS011;2117;47.972;7.830;2024-01-16T05:22:05;13.93;;;6.90;;
4206;SDS011;2117;47.972;7.830;2024-01-16T05:24:31;17.17;;;8.50;;
4206;SDS011;2117;47.972;7.830;2024-01-16T05:26:56;14.33;;;7.37;;
4206;SDS011;2117;47.972;7.830;2024-01-16T05:29:22;15.07;;;8.30;;
4206;SDS011;2117;47.972;7.830;2024-01-16T05:31:48;14.80;;;8.47;;
4206;SDS011;2117;47.972;7.830;2024-01-16T05:34:14;11.90;;;7.40;;
4206;SDS011;2117;47.972;7.830;2024-01-16T05:36:40;10.87;;;6.40;;
4206;SDS011;2117;47.972;7.830;2024-01-16T05:39:06;15.53;;;5.77;;
4206;SDS011;2117;47.972;7.830;2024-01-16T05:41:33;10.30;;;5.20;;
4206;SDS011;2117;47.972;7.830;2024-01-16T05:43:59;11.07;;;6.10;;
4206;SDS011;2117;47.972;7.830;2024-01-16T05:46:25;13.93;;;6.10;;
4206;SDS011;2117;47.972;7.830;2024-01-16T05:48:51;16.17;;;9.53;;
4206;SDS011;2117;47.972;7.830;2024-01-16T05:51:16;13.37;;;6.90;;
4206;SDS011;2117;47.972;7.830;2024-01-16T05:53:42;11.67;;;6.40;;
4206;SDS011;2117;47.972;7.830;2024-01-16T05:56:08;11.97;;;6.40;;
4206;SDS011;2117;47.972;7.830;2024-01-16T05:58:34;10.30;;;5.77;;
4206;SDS011;2117;47.972;7.830;2024-01-16T06:01:04;9.07;;;5.80;;
4206;SDS011;2117;47.972;7.830;2024-01-16T06:03:29;8.80;;;5.50;;
4206;SDS011;2117;47.972;7.830;2024-01-16T06:05:55;11.27;;;5.67;;
4206;SDS011;2117;47.972;7.830;2024-01-16T06:08:21;9.27;;;5.40;;
4206;SDS011;2117;47.972;7.830;2024-01-16T06:10:46;10.80;;;5.77;;
4206;SDS011;2117;47.972;7.830;2024-01-16T06:13:12;9.93;;;4.97;;
4206;SDS011;2117;47.972;7.830;2024-01-16T06:15:37;13.30;;;5.73;;
4206;SDS011;2117;47.972;7.830;2024-01-16T06:18:03;12.53;;;4.67;;
4206;SDS011;2117;47.972;7.830;2024-01-16T06:20:29;12.80;;;6.30;;
4206;SDS011;2117;47.972;7.830;2024-01-16T06:22:55;17.00;;;7.70;;
4206;SDS011;2117;47.972;7.830;2024-01-16T06:25:21;14.90;;;7.63;;
4206;SDS011;2117;47.972;7.830;2024-01-16T06:27:47;20.53;;;8.67;;
4206;SDS011;2117;47.972;7.830;2024-01-16T06:30:12;21.43;;;8.70;;
4206;SDS011;2117;47.972;7.830;2024-01-16T06:32:38;12.40;;;7.60;;
4206;SDS011;2117;47.972;7.830;2024-01-16T06:35:04;11.03;;;6.17;;
4206;SDS011;2117;47.972;7.830;2024-01-16T06:37:30;8.00;;;5.13;;
4206;SDS011;2117;47.972;7.830;2024-01-16T06:39:56;8.40;;;5.00;;
4206;SDS011;2117;47.972;7.830;2024-01-16T06:42:22;9.03;;;5.17;;
4206;SDS011;2117;47.972;7.830;2024-01-16T06:44:47;9.13;;;5.70;;
4206;SDS011;2117;47.972;7.830;2024-01-16T06:47:13;14.73;;;6.30;;
4206;SDS011;2117;47.972;7.830;2024-01-16T06:49:38;14.00;;;6.70;;
4206;SDS011;2117;47.972;7.830;2024-01-16T06:52:04;14.23;;;6.83;;
4206;SDS011;2117;47.972;7.830;2024-01-16T06:54:30;10.20;;;6.00;;
4206;SDS011;2117;47.972;7.830;2024-01-16T06:56:55;9.57;;;6.07;;
4206;SDS011;2117;47.972;7.830;2024-01-16T06:59:21;12.00;;;6.30;;
4206;SDS011;2117;47.972;7.830;2024-01-16T07:01:47;16.30;;;6.70;;
4206;SDS011;2117;47.972;7.830;2024-01-16T07:04:12;13.97;;;7.53;;
4206;SDS011;2117;47.972;7.830;2024-01-16T07:06:39;11.13;;;7.00;;
4206;SDS011;2117;47.972;7.830;2024-01-16T07:09:05;13.63;;;7.33;;
4206;SDS011;2117;47.972;7.830;2024-01-16T07:11:30;16.00;;;7.33;;
4206;SDS011;2117;47.972;7.830;2024-01-16T07:13:56;13.13;;;7.50;;
4206;SDS011;2117;47.972;7.830;2024-01-16T07:16:22;13.83;;;7.97;;
4206;SDS011;2117;47.972;7.830;2024-01-16T07:18:47;15.70;;;7.37;;
4206;SDS011;2117;47.972;7.830;2024-01-16T07:21:19;13.90;;;8.30;;
4206;SDS011;2117;47.972;7.830;2024-01-16T07:23:45;14.80;;;8.80;;
4206;SDS011;2117;47.972;7.830;2024-01-16T07:26:11;14.33;;;9.43;;
4206;SDS011;2117;47.972;7.830;2024-01-16T07:28:37;19.87;;;11.37;;
4206;SDS011;2117;47.972;7.830;2024-01-16T07:31:03;16.30;;;9.10;;
4206;SDS011;2117;47.972;7.830;2024-01-16T07:33:29;18.73;;;10.87;;
4206;SDS011;2117;47.972;7.830;2024-01-16T07:35:54;20.63;;;12.20;;
4206;SDS011;2117;47.972;7.830;2024-01-16T07:38:20;27.73;;;15.83;;
4206;SDS011;2117;47.972;7.830;2024-01-16T07:40:45;20.20;;;13.27;;
4206;SDS011;2117;47.972;7.830;2024-01-16T07:43:11;18.50;;;12.60;;
4206;SDS011;2117;47.972;7.830;2024-01-16T07:45:37;14.70;;;9.07;;
4206;SDS011;2117;47.972;7.830;2024-01-16T07:48:02;19.10;;;9.83;;
4206;SDS011;2117;47.972;7.830;2024-01-16T07:50:28;13.60;;;8.47;;
4206;SDS011;2117;47.972;7.830;2024-01-16T07:52:54;22.17;;;13.40;;
4206;SDS011;2117;47.972;7.830;2024-01-16T07:55:19;24.37;;;15.43;;
4206;SDS011;2117;47.972;7.830;2024-01-16T07:57:45;28.40;;;17.37;;
4206;SDS011;2117;47.972;7.830;2024-01-16T08:00:10;27.13;;;19.17;;
4206;SDS011;2117;47.972;7.830;2024-01-16T08:02:40;35.63;;;18.90;;
4206;SDS011;2117;47.972;7.830;2024-01-16T08:05:06;36.90;;;19.30;;
4206;SDS011;2117;47.972;7.830;2024-01-16T08:07:32;45.40;;;24.20;;
4206;SDS011;2117;47.972;7.830;2024-01-16T08:09:57;42.90;;;23.30;;
4206;SDS011;2117;47.972;7.830;2024-01-16T08:12:23;46.13;;;24.00;;
4206;SDS011;2117;47.972;7.830;2024-01-16T08:14:48;42.77;;;21.80;;
4206;SDS011;2117;47.972;7.830;2024-01-16T08:17:14;40.40;;;19.80;;
4206;SDS011;2117;47.972;7.830;2024-01-16T08:19:40;37.07;;;20.20;;
4206;SDS011;2117;47.972;7.830;2024-01-16T08:22:06;50.90;;;27.90;;
4206;SDS011;2117;47.972;7.830;2024-01-16T08:24:33;44.37;;;26.77;;
4206;SDS011;2117;47.972;7.830;2024-01-16T08:26:58;34.40;;;19.40;;
4206;SDS011;2117;47.972;7.830;2024-01-16T08:29:24;30.60;;;17.43;;
4206;SDS011;2117;47.972;7.830;2024-01-16T08:31:50;37.17;;;19.70;;
4206;SDS011;2117;47.972;7.830;2024-01-16T08:34:18;31.67;;;18.00;;
4206;SDS011;2117;47.972;7.830;2024-01-16T08:36:44;34.60;;;18.20;;
4206;SDS011;2117;47.972;7.830;2024-01-16T08:39:10;36.30;;;17.90;;
4206;SDS011;2117;47.972;7.830;2024-01-16T08:41:36;32.97;;;19.33;;
4206;SDS011;2117;47.972;7.830;2024-01-16T08:44:02;36.43;;;18.00;;
4206;SDS011;2117;47.972;7.830;2024-01-16T08:46:28;34.57;;;16.37;;
4206;SDS011;2117;47.972;7.830;2024-01-16T08:48:53;22.23;;;11.87;;
4206;SDS011;2117;47.972;7.830;2024-01-16T08:51:19;18.03;;;11.10;;
4206;SDS011;2117;47.972;7.830;2024-01-16T08:53:45;19.23;;;11.50;;
4206;SDS011;2117;47.972;7.830;2024-01-16T08:56:11;55.20;;;13.30;;
4206;SDS011;2117;47.972;7.830;2024-01-16T08:58:37;27.03;;;10.63;;
4206;SDS011;2117;47.972;7.830;2024-01-16T09:01:03;17.87;;;9.57;;
4206;SDS011;2117;47.972;7.830;2024-01-16T09:03:32;17.63;;;10.00;;
4206;SDS011;2117;47.972;7.830;2024-01-16T09:05:59;14.50;;;8.53;;
4206;SDS011;2117;47.972;7.830;2024-01-16T09:08:25;13.53;;;8.63;;
4206;SDS011;2117;47.972;7.830;2024-01-16T09:10:51;10.37;;;7.10;;
4206;SDS011;2117;47.972;7.830;2024-01-16T09:13:17;17.50;;;7.87;;
4206;SDS011;2117;47.972;7.830;2024-01-16T09:15:43;15.90;;;8.03;;
4206;SDS011;2117;47.972;7.830;2024-01-16T09:18:09;13.93;;;8.73;;
4206;SDS011;2117;47.972;7.830;2024-01-16T09:20:34;10.47;;;6.40;;
4206;SDS011;2117;47.972;7.830;2024-01-16T09:23:00;14.23;;;8.40;;
4206;SDS011;2117;47.972;7.830;2024-01-16T09:25:25;12.47;;;6.57;;
4206;SDS011;2117;47.972;7.830;2024-01-16T09:27:52;13.13;;;7.07;;
4206;SDS011;2117;47.972;7.830;2024-01-16T09:30:18;9.97;;;6.10;;
4206;SDS011;2117;47.972;7.830;2024-01-16T09:32:44;10.97;;;6.17;;
4206;SDS011;2117;47.972;7.830;2024-01-16T09:35:10;14.00;;;6.73;;
4206;SDS011;2117;47.972;7.830;2024-01-16T09:37:36;13.93;;;7.20;;
4206;SDS011;2117;47.972;7.830;2024-01-16T09:40:01;11.50;;;6.10;;
4206;SDS011;2117;47.972;7.830;2024-01-16T09:42:30;11.77;;;7.40;;
4206;SDS011;2117;47.972;7.830;2024-01-16T09:44:56;10.87;;;6.20;;
4206;SDS011;2117;47.972;7.830;2024-01-16T09:47:22;9.37;;;6.33;;
4206;SDS011;2117;47.972;7.830;2024-01-16T09:49:49;14.07;;;7.17;;
4206;SDS011;2117;47.972;7.830;2024-01-16T09:52:15;9.60;;;6.30;;
4206;SDS011;2117;47.972;7.830;2024-01-16T09:54:41;13.80;;;7.50;;
4206;SDS011;2117;47.972;7.830;2024-01-16T09:57:07;14.27;;;7.43;;
4206;SDS011;2117;47.972;7.830;2024-01-16T09:59:35;10.63;;;6.60;;
4206;SDS011;2117;47.972;7.830;2024-01-16T10:02:04;9.40;;;5.30;;
4206;SDS011;2117;47.972;7.830;2024-01-16T10:04:31;10.50;;;6.77;;
4206;SDS011;2117;47.972;7.830;2024-01-16T10:06:58;15.07;;;6.97;;
4206;SDS011;2117;47.972;7.830;2024-01-16T10:09:26;12.10;;;7.67;;
4206;SDS011;2117;47.972;7.830;2024-01-16T10:11:52;12.23;;;8.10;;
4206;SDS011;2117;47.972;7.830;2024-01-16T10:14:18;13.67;;;8.03;;
4206;SDS011;2117;47.972;7.830;2024-01-16T10:19:34;17.10;;;6.73;;
4206;SDS011;2117;47.972;7.830;2024-01-16T10:22:12;16.40;;;8.27;;
4206;SDS011;2117;47.972;7.830;2024-01-16T10:24:38;14.70;;;9.27;;
4206;SDS011;2117;47.972;7.830;2024-01-16T10:27:04;19.07;;;9.53;;
4206;SDS011;2117;47.972;7.830;2024-01-16T10:29:29;39.97;;;27.37;;
4206;SDS011;2117;47.972;7.830;2024-01-16T10:31:58;51.63;;;31.70;;
4206;SDS011;2117;47.972;7.830;2024-01-16T10:34:24;20.03;;;12.73;;
4206;SDS011;2117;47.972;7.830;2024-01-16T10:36:50;16.63;;;9.97;;
4206;SDS011;2117;47.972;7.830;2024-01-16T10:39:17;14.33;;;9.43;;
4206;SDS011;2117;47.972;7.830;2024-01-16T10:41:56;11.27;;;7.73;;
4206;SDS011;2117;47.972;7.830;2024-01-16T10:44:22;12.10;;;7.07;;
4206;SDS011;2117;47.972;7.830;2024-01-16T10:46:48;14.07;;;8.47;;
4206;SDS011;2117;47.972;7.830;2024-01-16T10:49:13;14.60;;;8.27;;
4206;SDS011;2117;47.972;7.830;2024-01-16T10:51:39;15.33;;;8.67;;
4206;SDS011;2117;47.972;7.830;2024-01-16T10:54:14;15.33;;;9.10;;
4206;SDS011;2117;47.972;7.830;2024-01-16T10:56:44;13.87;;;7.97;;
4206;SDS011;2117;47.972;7.830;2024-01-16T10:59:21;16.10;;;7.50;;
4206;SDS011;2117;47.972;7.830;2024-01-16T11:01:51;14.20;;;7.57;;
4206;SDS011;2117;47.972;7.830;2024-01-16T11:04:20;13.83;;;7.10;;
4206;SDS011;2117;47.972;7.830;2024-01-16T11:06:46;11.00;;;7.67;;
4206;SDS011;2117;47.972;7.830;2024-01-16T11:09:13;14.60;;;8.13;;
4206;SDS011;2117;47.972;7.830;2024-01-16T11:11:44;20.00;;;8.80;;
4206;SDS011;2117;47.972;7.830;2024-01-16T11:14:14;10.60;;;7.33;;
4206;SDS011;2117;47.972;7.830;2024-01-16T11:16:40;16.47;;;8.63;;
4206;SDS011;2117;47.972;7.830;2024-01-16T11:19:07;18.73;;;7.93;;
4206;SDS011;2117;47.972;7.830;2024-01-16T11:21:35;20.13;;;10.13;;
4206;SDS011;2117;47.972;7.830;2024-01-16T11:24:02;14.77;;;9.67;;
4206;SDS011;2117;47.972;7.830;2024-01-16T11:26:31;15.90;;;8.63;;
4206;SDS011;2117;47.972;7.830;2024-01-16T11:29:01;15.77;;;9.60;;
4206;SDS011;2117;47.972;7.830;2024-01-16T11:31:59;13.53;;;9.13;;
4206;SDS011;2117;47.972;7.830;2024-01-16T11:37:30;20.17;;;9.03;;
4206;SDS011;2117;47.972;7.830;2024-01-16T11:42:43;17.20;;;9.53;;
4206;SDS011;2117;47.972;7.830;2024-01-16T11:48:11;15.93;;;9.50;;
4206;SDS011;2117;47.972;7.830;2024-01-16T11:50:38;15.10;;;9.00;;
4206;SDS011;2117;47.972;7.830;2024-01-16T11:53:04;15.47;;;8.13;;
4206;SDS011;2117;47.972;7.830;2024-01-16T11:55:31;17.00;;;8.17;;
4206;SDS011;2117;47.972;7.830;2024-01-16T12:01:02;18.00;;;7.70;;
4206;SDS011;2117;47.972;7.830;2024-01-16T12:03:30;13.73;;;6.80;;
4206;SDS011;2117;47.972;7.830;2024-01-16T12:05:56;19.40;;;8.43;;
4206;SDS011;2117;47.972;7.830;2024-01-16T12:08:25;15.23;;;8.13;;
4206;SDS011;2117;47.972;7.830;2024-01-16T12:10:51;15.30;;;8.40;;
4206;SDS011;2117;47.972;7.830;2024-01-16T12:13:17;17.50;;;8.47;;
4206;SDS011;2117;47.972;7.830;2024-01-16T12:15:42;9.33;;;6.40;;
4206;SDS011;2117;47.972;7.830;2024-01-16T12:18:08;10.10;;;5.83;;
4206;SDS011;2117;47.972;7.830;2024-01-16T12:20:34;14.10;;;7.20;;
4206;SDS011;2117;47.972;7.830;2024-01-16T12:23:05;10.00;;;6.67;;
4206;SDS011;2117;47.972;7.830;2024-01-16T12:25:32;18.67;;;6.90;;
4206;SDS011;2117;47.972;7.830;2024-01-16T12:28:00;15.13;;;6.20;;
4206;SDS011;2117;47.972;7.830;2024-01-16T12:30:29;13.57;;;6.43;;
4206;SDS011;2117;47.972;7.830;2024-01-16T12:35:33;18.43;;;6.47;;
4206;SDS011;2117;47.972;7.830;2024-01-16T12:38:00;10.30;;;6.10;;
4206;SDS011;2117;47.972;7.830;2024-01-16T12:40:26;13.30;;;5.60;;
4206;SDS011;2117;47.972;7.830;2024-01-16T12:42:53;9.60;;;5.90;;
4206;SDS011;2117;47.972;7.830;2024-01-16T12:45:19;8.50;;;5.40;;
4206;SDS011;2117;47.972;7.830;2024-01-16T12:47:49;10.97;;;6.07;;
4206;SDS011;2117;47.972;7.830;2024-01-16T12:50:19;8.70;;;4.70;;
4206;SDS011;2117;47.972;7.830;2024-01-16T12:52:46;9.23;;;4.97;;
4206;SDS011;2117;47.972;7.830;2024-01-16T12:55:11;9.77;;;5.07;;
4206;SDS011;2117;47.972;7.830;2024-01-16T12:57:39;13.83;;;5.63;;
4206;SDS011;2117;47.972;7.830;2024-01-16T13:00:20;13.30;;;6.00;;
4206;SDS011;2117;47.972;7.830;2024-01-16T13:02:50;14.13;;;6.40;;
4206;SDS011;2117;47.972;7.830;2024-01-16T13:05:17;18.33;;;7.73;;
4206;SDS011;2117;47.972;7.830;2024-01-16T13:07:43;14.40;;;7.10;;
4206;SDS011;2117;47.972;7.830;2024-01-16T13:10:09;16.37;;;6.73;;
4206;SDS011;2117;47.972;7.830;2024-01-16T13:12:43;9.27;;;6.00;;
4206;SDS011;2117;47.972;7.830;2024-01-16T13:15:08;13.33;;;7.57;;
4206;SDS011;2117;47.972;7.830;2024-01-16T13:17:36;8.00;;;5.67;;
4206;SDS011;2117;47.972;7.830;2024-01-16T13:20:02;11.23;;;7.17;;
4206;SDS011;2117;47.972;7.830;2024-01-16T13:22:33;9.93;;;6.03;;
4206;SDS011;2117;47.972;7.830;2024-01-16T13:24:59;14.77;;;7.90;;
4206;SDS011;2117;47.972;7.830;2024-01-16T13:27:25;11.87;;;7.57;;
4206;SDS011;2117;47.972;7.830;2024-01-16T13:29:51;11.67;;;7.77;;
4206;SDS011;2117;47.972;7.830;2024-01-16T13:32:17;13.80;;;6.43;;
4206;SDS011;2117;47.972;7.830;2024-01-16T13:34:42;14.50;;;6.17;;
4206;SDS011;2117;47.972;7.830;2024-01-16T13:37:14;25.57;;;14.77;;
4206;SDS011;2117;47.972;7.830;2024-01-16T13:39:44;15.17;;;9.00;;
4206;SDS011;2117;47.972;7.830;2024-01-16T13:42:10;8.43;;;5.80;;
4206;SDS011;2117;47.972;7.830;2024-01-16T13:44:35;17.27;;;7.20;;
4206;SDS011;2117;47.972;7.830;2024-01-16T13:47:01;11.10;;;6.40;;
4206;SDS011;2117;47.972;7.830;2024-01-16T13:49:26;12.80;;;6.27;;
4206;SDS011;2117;47.972;7.830;2024-01-16T13:51:52;12.87;;;7.03;;
4206;SDS011;2117;47.972;7.830;2024-01-16T13:54:17;12.47;;;6.73;;
4206;SDS011;2117;47.972;7.830;2024-01-16T13:56:43;10.07;;;5.90;;
4206;SDS011;2117;47.972;7.830;2024-01-16T13:59:09;9.73;;;6.40;;
4206;SDS011;2117;47.972;7.830;2024-01-16T14:01:35;13.67;;;7.20;;
4206;SDS011;2117;47.972;7.830;2024-01-16T14:04:01;10.00;;;6.30;;
4206;SDS011;2117;47.972;7.830;2024-01-16T14:06:26;12.50;;;6.17;;
4206;SDS011;2117;47.972;7.830;2024-01-16T14:08:52;11.97;;;7.27;;
4206;SDS011;2117;47.972;7.830;2024-01-16T14:11:17;10.10;;;5.93;;
4206;SDS011;2117;47.972;7.830;2024-01-16T14:13:43;9.20;;;6.70;;
4206;SDS011;2117;47.972;7.830;2024-01-16T14:16:08;9.50;;;5.87;;
4206;SDS011;2117;47.972;7.830;2024-01-16T14:18:34;9.97;;;5.93;;
4206;SDS011;2117;47.972;7.830;2024-01-16T14:20:59;9.40;;;6.30;;
4206;SDS011;2117;47.972;7.830;2024-01-16T14:23:29;12.13;;;7.13;;
4206;SDS011;2117;47.972;7.830;2024-01-16T14:25:55;11.50;;;6.13;;
4206;SDS011;2117;47.972;7.830;2024-01-16T14:28:20;14.63;;;7.30;;
4206;SDS011;2117;47.972;7.830;2024-01-16T14:30:51;10.20;;;6.83;;
4206;SDS011;2117;47.972;7.830;2024-01-16T14:33:16;15.73;;;6.90;;
4206;SDS011;2117;47.972;7.830;2024-01-16T14:35:42;13.03;;;6.07;;
4206;SDS011;2117;47.972;7.830;2024-01-16T14:38:07;13.10;;;6.73;;
4206;SDS011;2117;47.972;7.830;2024-01-16T14:40:33;16.50;;;7.07;;
4206;SDS011;2117;47.972;7.830;2024-01-16T14:42:59;11.00;;;6.80;;
4206;SDS011;2117;47.972;7.830;2024-01-16T14:45:30;14.20;;;7.73;;
4206;SDS011;2117;47.972;7.830;2024-01-16T14:47:56;9.87;;;6.10;;
4206;SDS011;2117;47.972;7.830;2024-01-16T14:50:22;16.93;;;7.40;;
4206;SDS011;2117;47.972;7.830;2024-01-16T14:52:49;12.07;;;6.80;;
4206;SDS011;2117;47.972;7.830;2024-01-16T14:55:15;14.23;;;6.60;;
4206;SDS011;2117;47.972;7.830;2024-01-16T14:57:41;16.13;;;7.10;;
4206;SDS011;2117;47.972;7.830;2024-01-16T15:02:51;9.93;;;5.90;;
4206;SDS011;2117;47.972;7.830;2024-01-16T15:05:17;14.40;;;7.80;;
4206;SDS011;2117;47.972;7.830;2024-01-16T15:07:46;12.33;;;7.33;;
4206;SDS011;2117;47.972;7.830;2024-01-16T15:10:12;16.90;;;7.50;;
4206;SDS011;2117;47.972;7.830;2024-01-16T15:12:41;15.40;;;7.47;;
4206;SDS011;2117;47.972;7.830;2024-01-16T15:15:08;17.90;;;10.07;;
4206;SDS011;2117;47.972;7.830;2024-01-16T15:17:35;25.77;;;11.40;;
4206;SDS011;2117;47.972;7.830;2024-01-16T15:20:01;22.57;;;13.30;;